Terminal Aerodrome Forecast
Issued by NWS Cleveland, OH

Home | Current Version | Previous Version | Text Only | Print | Product List | Glossary Off
Versions: 1 2 3 4 5 6 7 8 9 10 11 12 13 14 15 16 17 18 19

000
FTUS41 KCLE 231120
TAFERI
TAF
KERI 231120Z 2312/2412 19006KT P6SM SCT250
     FM231500 25005KT P6SM SCT200
     FM231800 36006KT P6SM SCT250
     FM232300 06007KT P6SM SCT200
     FM240200 11005KT P6SM SCT150=

USA.gov is the U.S. government's official web portal to all federal, state and local government web resources and services.